sensor_id;sensor_type;location;lat;lon;timestamp;P1;durP1;ratioP1;P2;durP2;ratioP2
69244;SDS011;56357;52.304;4.870;2023-03-24T00:00:22;4.93;;;1.10;;
69244;SDS011;56357;52.304;4.870;2023-03-24T00:02:49;7.20;;;2.03;;
69244;SDS011;56357;52.304;4.870;2023-03-24T00:05:17;5.75;;;1.27;;
69244;SDS011;56357;52.304;4.870;2023-03-24T00:07:46;5.60;;;0.90;;
69244;SDS011;56357;52.304;4.870;2023-03-24T00:10:13;7.27;;;1.20;;
69244;SDS011;56357;52.304;4.870;2023-03-24T00:12:43;6.22;;;1.13;;
69244;SDS011;56357;52.304;4.870;2023-03-24T00:15:12;5.50;;;1.08;;
69244;SDS011;56357;52.304;4.870;2023-03-24T00:17:45;6.30;;;1.30;;
69244;SDS011;56357;52.304;4.870;2023-03-24T00:20:14;5.35;;;1.30;;
69244;SDS011;56357;52.304;4.870;2023-03-24T00:22:45;5.07;;;1.10;;
69244;SDS011;56357;52.304;4.870;2023-03-24T00:25:18;6.13;;;1.20;;
69244;SDS011;56357;52.304;4.870;2023-03-24T00:27:47;4.90;;;1.23;;
69244;SDS011;56357;52.304;4.870;2023-03-24T00:30:15;5.10;;;1.30;;
69244;SDS011;56357;52.304;4.870;2023-03-24T00:32:43;4.88;;;0.80;;
69244;SDS011;56357;52.304;4.870;2023-03-24T00:35:11;5.73;;;1.00;;
69244;SDS011;56357;52.304;4.870;2023-03-24T00:37:39;4.95;;;1.10;;
69244;SDS011;56357;52.304;4.870;2023-03-24T00:40:12;4.63;;;1.10;;
69244;SDS011;56357;52.304;4.870;2023-03-24T00:42:40;5.25;;;1.20;;
69244;SDS011;56357;52.304;4.870;2023-03-24T00:45:09;4.97;;;1.05;;
69244;SDS011;56357;52.304;4.870;2023-03-24T00:47:37;6.43;;;1.20;;
69244;SDS011;56357;52.304;4.870;2023-03-24T00:50:04;5.28;;;1.10;;
69244;SDS011;56357;52.304;4.870;2023-03-24T00:52:33;5.05;;;1.10;;
69244;SDS011;56357;52.304;4.870;2023-03-24T00:55:03;4.65;;;1.40;;
69244;SDS011;56357;52.304;4.870;2023-03-24T00:57:31;5.75;;;1.10;;
69244;SDS011;56357;52.304;4.870;2023-03-24T01:00:00;4.47;;;1.07;;
69244;SDS011;56357;52.304;4.870;2023-03-24T01:02:35;3.95;;;0.90;;
69244;SDS011;56357;52.304;4.870;2023-03-24T01:05:01;5.90;;;1.10;;
69244;SDS011;56357;52.304;4.870;2023-03-24T01:07:28;4.40;;;1.10;;
69244;SDS011;56357;52.304;4.870;2023-03-24T01:09:55;4.10;;;0.95;;
69244;SDS011;56357;52.304;4.870;2023-03-24T01:12:23;5.77;;;1.03;;
69244;SDS011;56357;52.304;4.870;2023-03-24T01:14:51;4.05;;;0.90;;
69244;SDS011;56357;52.304;4.870;2023-03-24T01:17:18;5.05;;;1.10;;
69244;SDS011;56357;52.304;4.870;2023-03-24T01:19:47;4.78;;;1.10;;
69244;SDS011;56357;52.304;4.870;2023-03-24T01:22:14;4.70;;;0.80;;
69244;SDS011;56357;52.304;4.870;2023-03-24T01:24:40;4.93;;;0.90;;
69244;SDS011;56357;52.304;4.870;2023-03-24T01:27:07;4.03;;;0.80;;
69244;SDS011;56357;52.304;4.870;2023-03-24T01:29:34;5.15;;;1.10;;
69244;SDS011;56357;52.304;4.870;2023-03-24T01:32:01;4.88;;;1.00;;
69244;SDS011;56357;52.304;4.870;2023-03-24T01:34:27;4.22;;;1.10;;
69244;SDS011;56357;52.304;4.870;2023-03-24T01:36:54;5.43;;;1.10;;
69244;SDS011;56357;52.304;4.870;2023-03-24T01:39:20;4.88;;;0.88;;
69244;SDS011;56357;52.304;4.870;2023-03-24T01:41:47;5.25;;;0.95;;
69244;SDS011;56357;52.304;4.870;2023-03-24T01:44:27;4.68;;;0.98;;
69244;SDS011;56357;52.304;4.870;2023-03-24T01:46:56;4.82;;;1.27;;
69244;SDS011;56357;52.304;4.870;2023-03-24T01:49:24;4.63;;;0.77;;
69244;SDS011;56357;52.304;4.870;2023-03-24T01:51:55;4.50;;;1.10;;
69244;SDS011;56357;52.304;4.870;2023-03-24T01:54:28;4.03;;;0.90;;
69244;SDS011;56357;52.304;4.870;2023-03-24T01:57:03;4.63;;;1.20;;
69244;SDS011;56357;52.304;4.870;2023-03-24T01:59:45;5.90;;;1.45;;
69244;SDS011;56357;52.304;4.870;2023-03-24T02:02:13;4.90;;;0.80;;
69244;SDS011;56357;52.304;4.870;2023-03-24T02:04:46;4.35;;;0.77;;
69244;SDS011;56357;52.304;4.870;2023-03-24T02:10:04;4.82;;;0.82;;
69244;SDS011;56357;52.304;4.870;2023-03-24T02:12:34;4.22;;;0.90;;
69244;SDS011;56357;52.304;4.870;2023-03-24T02:15:01;3.67;;;0.70;;
69244;SDS011;56357;52.304;4.870;2023-03-24T02:17:33;3.28;;;0.75;;
69244;SDS011;56357;52.304;4.870;2023-03-24T02:26:32;4.03;;;0.80;;
69244;SDS011;56357;52.304;4.870;2023-03-24T02:29:47;4.77;;;0.70;;
69244;SDS011;56357;52.304;4.870;2023-03-24T02:35:24;4.15;;;0.90;;
69244;SDS011;56357;52.304;4.870;2023-03-24T02:40:30;3.63;;;0.63;;
69244;SDS011;56357;52.304;4.870;2023-03-24T02:46:08;4.35;;;0.60;;
69244;SDS011;56357;52.304;4.870;2023-03-24T02:51:24;3.58;;;0.70;;
69244;SDS011;56357;52.304;4.870;2023-03-24T03:02:25;3.78;;;0.98;;
69244;SDS011;56357;52.304;4.870;2023-03-24T03:04:59;3.60;;;0.70;;
69244;SDS011;56357;52.304;4.870;2023-03-24T03:07:30;5.03;;;0.88;;
69244;SDS011;56357;52.304;4.870;2023-03-24T03:10:03;4.90;;;0.73;;
69244;SDS011;56357;52.304;4.870;2023-03-24T03:12:37;5.25;;;0.70;;
69244;SDS011;56357;52.304;4.870;2023-03-24T03:15:05;3.95;;;0.50;;
69244;SDS011;56357;52.304;4.870;2023-03-24T03:17:38;4.13;;;0.70;;
69244;SDS011;56357;52.304;4.870;2023-03-24T03:20:08;3.85;;;0.60;;
69244;SDS011;56357;52.304;4.870;2023-03-24T03:23:02;3.87;;;0.67;;
69244;SDS011;56357;52.304;4.870;2023-03-24T03:25:32;4.10;;;0.80;;
69244;SDS011;56357;52.304;4.870;2023-03-24T03:28:02;5.32;;;0.82;;
69244;SDS011;56357;52.304;4.870;2023-03-24T03:30:34;4.13;;;0.77;;
69244;SDS011;56357;52.304;4.870;2023-03-24T03:33:11;5.28;;;0.90;;
69244;SDS011;56357;52.304;4.870;2023-03-24T03:35:43;4.83;;;0.77;;
69244;SDS011;56357;52.304;4.870;2023-03-24T03:38:22;4.75;;;0.90;;
69244;SDS011;56357;52.304;4.870;2023-03-24T03:40:50;4.10;;;0.70;;
69244;SDS011;56357;52.304;4.870;2023-03-24T03:43:20;6.05;;;0.80;;
69244;SDS011;56357;52.304;4.870;2023-03-24T03:45:48;4.13;;;0.73;;
69244;SDS011;56357;52.304;4.870;2023-03-24T03:48:15;5.00;;;1.00;;
69244;SDS011;56357;52.304;4.870;2023-03-24T03:50:42;4.07;;;0.52;;
69244;SDS011;56357;52.304;4.870;2023-03-24T03:53:09;5.53;;;0.82;;
69244;SDS011;56357;52.304;4.870;2023-03-24T03:55:38;4.22;;;0.93;;
69244;SDS011;56357;52.304;4.870;2023-03-24T03:58:05;4.75;;;0.57;;
69244;SDS011;56357;52.304;4.870;2023-03-24T04:00:33;5.50;;;0.70;;
69244;SDS011;56357;52.304;4.870;2023-03-24T04:03:14;5.68;;;0.95;;
69244;SDS011;56357;52.304;4.870;2023-03-24T04:19:31;4.78;;;0.70;;
69244;SDS011;56357;52.304;4.870;2023-03-24T04:22:19;5.28;;;0.65;;
69244;SDS011;56357;52.304;4.870;2023-03-24T04:27:57;6.13;;;0.90;;
69244;SDS011;56357;52.304;4.870;2023-03-24T04:30:43;3.80;;;0.60;;
69244;SDS011;56357;52.304;4.870;2023-03-24T04:35:57;3.53;;;0.50;;
69244;SDS011;56357;52.304;4.870;2023-03-24T04:38:30;5.35;;;0.65;;
69244;SDS011;56357;52.304;4.870;2023-03-24T04:40:59;4.03;;;0.53;;
69244;SDS011;56357;52.304;4.870;2023-03-24T04:43:29;6.07;;;0.80;;
69244;SDS011;56357;52.304;4.870;2023-03-24T04:46:00;4.35;;;0.70;;
69244;SDS011;56357;52.304;4.870;2023-03-24T04:48:29;6.30;;;0.80;;
69244;SDS011;56357;52.304;4.870;2023-03-24T04:50:57;6.65;;;0.80;;
69244;SDS011;56357;52.304;4.870;2023-03-24T04:53:25;3.63;;;0.63;;
69244;SDS011;56357;52.304;4.870;2023-03-24T04:58:22;4.43;;;0.60;;
69244;SDS011;56357;52.304;4.870;2023-03-24T05:00:49;4.97;;;0.50;;
69244;SDS011;56357;52.304;4.870;2023-03-24T05:03:16;4.10;;;0.70;;
69244;SDS011;56357;52.304;4.870;2023-03-24T05:05:45;3.00;;;0.60;;
69244;SDS011;56357;52.304;4.870;2023-03-24T05:08:13;4.93;;;0.82;;
69244;SDS011;56357;52.304;4.870;2023-03-24T05:10:41;2.70;;;0.50;;
69244;SDS011;56357;52.304;4.870;2023-03-24T05:13:08;4.03;;;0.52;;
69244;SDS011;56357;52.304;4.870;2023-03-24T05:15:35;3.97;;;0.60;;
69244;SDS011;56357;52.304;4.870;2023-03-24T05:18:02;4.80;;;0.50;;
69244;SDS011;56357;52.304;4.870;2023-03-24T05:20:30;5.47;;;0.60;;
69244;SDS011;56357;52.304;4.870;2023-03-24T05:22:57;4.40;;;0.65;;
69244;SDS011;56357;52.304;4.870;2023-03-24T05:25:23;3.50;;;0.63;;
69244;SDS011;56357;52.304;4.870;2023-03-24T05:27:50;4.53;;;0.70;;
69244;SDS011;56357;52.304;4.870;2023-03-24T05:30:16;6.57;;;0.50;;
69244;SDS011;56357;52.304;4.870;2023-03-24T05:32:44;4.85;;;0.50;;
69244;SDS011;56357;52.304;4.870;2023-03-24T05:35:10;4.07;;;0.68;;
69244;SDS011;56357;52.304;4.870;2023-03-24T05:37:37;3.55;;;0.68;;
69244;SDS011;56357;52.304;4.870;2023-03-24T05:40:03;4.30;;;0.60;;
69244;SDS011;56357;52.304;4.870;2023-03-24T05:42:31;4.60;;;0.53;;
69244;SDS011;56357;52.304;4.870;2023-03-24T05:44:57;7.13;;;0.90;;
69244;SDS011;56357;52.304;4.870;2023-03-24T05:47:24;4.72;;;0.80;;
69244;SDS011;56357;52.304;4.870;2023-03-24T05:49:51;4.15;;;0.75;;
69244;SDS011;56357;52.304;4.870;2023-03-24T05:52:17;5.68;;;0.93;;
69244;SDS011;56357;52.304;4.870;2023-03-24T05:54:44;3.77;;;0.60;;
69244;SDS011;56357;52.304;4.870;2023-03-24T05:57:13;4.30;;;0.50;;
69244;SDS011;56357;52.304;4.870;2023-03-24T05:59:41;9.15;;;1.10;;
69244;SDS011;56357;52.304;4.870;2023-03-24T06:02:07;5.10;;;0.90;;
69244;SDS011;56357;52.304;4.870;2023-03-24T06:04:34;3.03;;;0.55;;
69244;SDS011;56357;52.304;4.870;2023-03-24T06:07:02;5.57;;;0.63;;
69244;SDS011;56357;52.304;4.870;2023-03-24T06:09:30;4.78;;;0.68;;
69244;SDS011;56357;52.304;4.870;2023-03-24T06:11:59;5.88;;;1.00;;
69244;SDS011;56357;52.304;4.870;2023-03-24T06:14:26;4.32;;;0.60;;
69244;SDS011;56357;52.304;4.870;2023-03-24T06:16:53;3.78;;;0.93;;
69244;SDS011;56357;52.304;4.870;2023-03-24T06:19:23;5.50;;;0.50;;
69244;SDS011;56357;52.304;4.870;2023-03-24T06:21:51;7.65;;;0.80;;
69244;SDS011;56357;52.304;4.870;2023-03-24T06:24:18;6.03;;;0.85;;
69244;SDS011;56357;52.304;4.870;2023-03-24T06:26:45;7.55;;;0.93;;
69244;SDS011;56357;52.304;4.870;2023-03-24T06:29:14;6.15;;;0.88;;
69244;SDS011;56357;52.304;4.870;2023-03-24T06:31:42;5.27;;;0.60;;
69244;SDS011;56357;52.304;4.870;2023-03-24T06:34:10;7.93;;;1.10;;
69244;SDS011;56357;52.304;4.870;2023-03-24T06:36:37;10.07;;;1.20;;
69244;SDS011;56357;52.304;4.870;2023-03-24T06:39:04;7.07;;;0.80;;
69244;SDS011;56357;52.304;4.870;2023-03-24T06:41:31;6.22;;;0.65;;
69244;SDS011;56357;52.304;4.870;2023-03-24T06:43:57;4.07;;;0.67;;
69244;SDS011;56357;52.304;4.870;2023-03-24T06:46:24;11.52;;;1.13;;
69244;SDS011;56357;52.304;4.870;2023-03-24T06:48:51;10.00;;;1.00;;
69244;SDS011;56357;52.304;4.870;2023-03-24T06:51:17;8.40;;;1.00;;
69244;SDS011;56357;52.304;4.870;2023-03-24T06:53:44;11.18;;;1.02;;
69244;SDS011;56357;52.304;4.870;2023-03-24T06:56:11;8.27;;;0.77;;
69244;SDS011;56357;52.304;4.870;2023-03-24T06:58:41;8.10;;;1.17;;
69244;SDS011;56357;52.304;4.870;2023-03-24T07:01:08;11.85;;;0.95;;
69244;SDS011;56357;52.304;4.870;2023-03-24T07:03:35;7.70;;;0.70;;
69244;SDS011;56357;52.304;4.870;2023-03-24T07:06:02;7.70;;;0.95;;
69244;SDS011;56357;52.304;4.870;2023-03-24T07:08:31;8.10;;;0.80;;
69244;SDS011;56357;52.304;4.870;2023-03-24T07:10:59;9.68;;;1.13;;
69244;SDS011;56357;52.304;4.870;2023-03-24T07:13:26;7.95;;;0.93;;
69244;SDS011;56357;52.304;4.870;2023-03-24T07:15:52;7.90;;;0.90;;
69244;SDS011;56357;52.304;4.870;2023-03-24T07:18:19;10.93;;;1.05;;
69244;SDS011;56357;52.304;4.870;2023-03-24T07:20:46;9.27;;;1.10;;
69244;SDS011;56357;52.304;4.870;2023-03-24T07:23:12;7.82;;;0.88;;
69244;SDS011;56357;52.304;4.870;2023-03-24T07:25:39;10.57;;;1.20;;
69244;SDS011;56357;52.304;4.870;2023-03-24T07:28:06;9.82;;;1.00;;
69244;SDS011;56357;52.304;4.870;2023-03-24T07:30:33;10.13;;;1.00;;
69244;SDS011;56357;52.304;4.870;2023-03-24T07:33:01;5.67;;;0.70;;
69244;SDS011;56357;52.304;4.870;2023-03-24T07:35:28;5.38;;;0.70;;
69244;SDS011;56357;52.304;4.870;2023-03-24T07:37:58;7.00;;;1.35;;
69244;SDS011;56357;52.304;4.870;2023-03-24T07:40:26;10.38;;;1.08;;
69244;SDS011;56357;52.304;4.870;2023-03-24T07:42:54;8.18;;;0.80;;
69244;SDS011;56357;52.304;4.870;2023-03-24T07:45:20;7.93;;;0.90;;
69244;SDS011;56357;52.304;4.870;2023-03-24T07:47:47;12.05;;;1.52;;
69244;SDS011;56357;52.304;4.870;2023-03-24T07:50:14;8.43;;;1.08;;
69244;SDS011;56357;52.304;4.870;2023-03-24T07:52:41;6.88;;;0.90;;
69244;SDS011;56357;52.304;4.870;2023-03-24T07:55:11;7.85;;;0.80;;
69244;SDS011;56357;52.304;4.870;2023-03-24T07:57:41;9.80;;;1.07;;
69244;SDS011;56357;52.304;4.870;2023-03-24T08:00:10;7.78;;;0.88;;
69244;SDS011;56357;52.304;4.870;2023-03-24T08:02:40;6.35;;;1.13;;
69244;SDS011;56357;52.304;4.870;2023-03-24T08:05:07;6.78;;;0.80;;
69244;SDS011;56357;52.304;4.870;2023-03-24T08:07:38;8.93;;;1.33;;
69244;SDS011;56357;52.304;4.870;2023-03-24T08:10:10;7.83;;;0.90;;
69244;SDS011;56357;52.304;4.870;2023-03-24T08:12:39;8.38;;;1.10;;
69244;SDS011;56357;52.304;4.870;2023-03-24T08:15:06;6.13;;;1.30;;
69244;SDS011;56357;52.304;4.870;2023-03-24T08:17:34;9.55;;;1.15;;
69244;SDS011;56357;52.304;4.870;2023-03-24T08:20:01;8.13;;;1.00;;
69244;SDS011;56357;52.304;4.870;2023-03-24T08:22:38;8.27;;;1.67;;
69244;SDS011;56357;52.304;4.870;2023-03-24T08:25:06;11.20;;;1.35;;
69244;SDS011;56357;52.304;4.870;2023-03-24T08:27:32;13.00;;;1.60;;
69244;SDS011;56357;52.304;4.870;2023-03-24T08:29:59;10.85;;;1.30;;
69244;SDS011;56357;52.304;4.870;2023-03-24T08:32:25;8.32;;;0.98;;
69244;SDS011;56357;52.304;4.870;2023-03-24T08:34:52;9.63;;;0.93;;
69244;SDS011;56357;52.304;4.870;2023-03-24T08:37:19;7.18;;;1.00;;
69244;SDS011;56357;52.304;4.870;2023-03-24T08:39:45;9.07;;;1.35;;
69244;SDS011;56357;52.304;4.870;2023-03-24T08:42:12;6.32;;;0.88;;
69244;SDS011;56357;52.304;4.870;2023-03-24T08:44:38;5.75;;;1.00;;
69244;SDS011;56357;52.304;4.870;2023-03-24T08:47:05;9.00;;;1.27;;
69244;SDS011;56357;52.304;4.870;2023-03-24T08:49:32;7.15;;;0.80;;
69244;SDS011;56357;52.304;4.870;2023-03-24T08:51:58;5.60;;;1.33;;
69244;SDS011;56357;52.304;4.870;2023-03-24T08:54:25;6.93;;;0.90;;
69244;SDS011;56357;52.304;4.870;2023-03-24T08:56:51;8.80;;;0.88;;
69244;SDS011;56357;52.304;4.870;2023-03-24T08:59:18;6.33;;;1.17;;
69244;SDS011;56357;52.304;4.870;2023-03-24T09:01:44;7.22;;;1.15;;
69244;SDS011;56357;52.304;4.870;2023-03-24T09:04:11;6.82;;;1.00;;
69244;SDS011;56357;52.304;4.870;2023-03-24T09:06:37;7.15;;;0.90;;
69244;SDS011;56357;52.304;4.870;2023-03-24T09:09:04;7.25;;;1.00;;
69244;SDS011;56357;52.304;4.870;2023-03-24T09:11:32;8.23;;;1.07;;
69244;SDS011;56357;52.304;4.870;2023-03-24T09:13:58;6.43;;;1.05;;
69244;SDS011;56357;52.304;4.870;2023-03-24T09:16:24;7.10;;;1.42;;
69244;SDS011;56357;52.304;4.870;2023-03-24T09:18:52;7.32;;;0.82;;
69244;SDS011;56357;52.304;4.870;2023-03-24T09:21:18;10.15;;;1.20;;
69244;SDS011;56357;52.304;4.870;2023-03-24T09:23:45;7.63;;;1.03;;
69244;SDS011;56357;52.304;4.870;2023-03-24T09:26:11;8.52;;;1.20;;
69244;SDS011;56357;52.304;4.870;2023-03-24T09:28:38;9.25;;;1.65;;
69244;SDS011;56357;52.304;4.870;2023-03-24T09:31:04;8.40;;;0.85;;
69244;SDS011;56357;52.304;4.870;2023-03-24T09:33:32;6.25;;;0.90;;
69244;SDS011;56357;52.304;4.870;2023-03-24T09:35:59;8.23;;;0.80;;
69244;SDS011;56357;52.304;4.870;2023-03-24T09:38:27;8.88;;;0.98;;
69244;SDS011;56357;52.304;4.870;2023-03-24T09:40:55;6.65;;;0.88;;
69244;SDS011;56357;52.304;4.870;2023-03-24T09:46:23;9.13;;;1.27;;
69244;SDS011;56357;52.304;4.870;2023-03-24T09:48:55;9.57;;;1.10;;
69244;SDS011;56357;52.304;4.870;2023-03-24T09:51:23;10.93;;;0.90;;
69244;SDS011;56357;52.304;4.870;2023-03-24T09:53:56;7.13;;;1.25;;
69244;SDS011;56357;52.304;4.870;2023-03-24T09:56:29;8.38;;;1.23;;
69244;SDS011;56357;52.304;4.870;2023-03-24T09:59:00;7.00;;;1.15;;
69244;SDS011;56357;52.304;4.870;2023-03-24T10:01:29;9.13;;;1.20;;
69244;SDS011;56357;52.304;4.870;2023-03-24T10:03:56;10.57;;;1.33;;
69244;SDS011;56357;52.304;4.870;2023-03-24T10:06:25;7.05;;;1.10;;
69244;SDS011;56357;52.304;4.870;2023-03-24T10:14:39;10.70;;;1.00;;
69244;SDS011;56357;52.304;4.870;2023-03-24T10:17:23;8.43;;;1.13;;
69244;SDS011;56357;52.304;4.870;2023-03-24T10:22:44;5.80;;;1.05;;
69244;SDS011;56357;52.304;4.870;2023-03-24T10:28:24;8.48;;;0.95;;
69244;SDS011;56357;52.304;4.870;2023-03-24T10:30:57;6.50;;;0.80;;
69244;SDS011;56357;52.304;4.870;2023-03-24T10:33:28;9.38;;;1.33;;
69244;SDS011;56357;52.304;4.870;2023-03-24T10:36:00;6.40;;;0.77;;
69244;SDS011;56357;52.304;4.870;2023-03-24T10:38:30;6.40;;;0.77;;
69244;SDS011;56357;52.304;4.870;2023-03-24T10:40:56;5.03;;;0.82;;
69244;SDS011;56357;52.304;4.870;2023-03-24T10:43:25;6.77;;;0.80;;
69244;SDS011;56357;52.304;4.870;2023-03-24T10:45:53;7.45;;;1.50;;
69244;SDS011;56357;52.304;4.870;2023-03-24T10:48:42;6.75;;;0.93;;
69244;SDS011;56357;52.304;4.870;2023-03-24T10:51:12;6.63;;;1.05;;
69244;SDS011;56357;52.304;4.870;2023-03-24T10:53:41;7.80;;;1.10;;
69244;SDS011;56357;52.304;4.870;2023-03-24T10:56:14;5.40;;;1.03;;
69244;SDS011;56357;52.304;4.870;2023-03-24T10:58:42;9.13;;;1.23;;
69244;SDS011;56357;52.304;4.870;2023-03-24T11:01:26;7.65;;;0.98;;
69244;SDS011;56357;52.304;4.870;2023-03-24T11:03:59;8.23;;;1.30;;
69244;SDS011;56357;52.304;4.870;2023-03-24T11:06:29;6.95;;;1.23;;
69244;SDS011;56357;52.304;4.870;2023-03-24T11:09:16;6.07;;;1.17;;
69244;SDS011;56357;52.304;4.870;2023-03-24T11:11:45;7.40;;;1.27;;
69244;SDS011;56357;52.304;4.870;2023-03-24T11:14:22;5.78;;;0.90;;
69244;SDS011;56357;52.304;4.870;2023-03-24T11:16:52;10.88;;;1.52;;
69244;SDS011;56357;52.304;4.870;2023-03-24T11:19:28;8.02;;;1.10;;
69244;SDS011;56357;52.304;4.870;2023-03-24T11:21:56;10.13;;;1.57;;
69244;SDS011;56357;52.304;4.870;2023-03-24T11:24:27;8.48;;;1.67;;
69244;SDS011;56357;52.304;4.870;2023-03-24T11:26:56;15.30;;;1.60;;
69244;SDS011;56357;52.304;4.870;2023-03-24T11:29:26;8.80;;;1.17;;
69244;SDS011;56357;52.304;4.870;2023-03-24T11:32:01;10.93;;;1.55;;
69244;SDS011;56357;52.304;4.870;2023-03-24T11:34:35;9.67;;;1.30;;
69244;SDS011;56357;52.304;4.870;2023-03-24T11:37:22;13.23;;;1.90;;
69244;SDS011;56357;52.304;4.870;2023-03-24T11:42:59;9.57;;;1.00;;
69244;SDS011;56357;52.304;4.870;2023-03-24T11:45:36;13.13;;;1.90;;
69244;SDS011;56357;52.304;4.870;2023-03-24T11:48:49;12.87;;;1.40;;
69244;SDS011;56357;52.304;4.870;2023-03-24T11:51:02;8.95;;;1.20;;
69244;SDS011;56357;52.304;4.870;2023-03-24T11:53:41;13.13;;;1.92;;
69244;SDS011;56357;52.304;4.870;2023-03-24T11:56:16;7.72;;;0.98;;
69244;SDS011;56357;52.304;4.870;2023-03-24T11:59:03;10.23;;;1.17;;
69244;SDS011;56357;52.304;4.870;2023-03-24T12:01:38;10.03;;;1.30;;
69244;SDS011;56357;52.304;4.870;2023-03-24T12:13:09;11.73;;;1.77;;
69244;SDS011;56357;52.304;4.870;2023-03-24T12:20:44;9.02;;;1.20;;
69244;SDS011;56357;52.304;4.870;2023-03-24T12:23:25;9.35;;;1.17;;
69244;SDS011;56357;52.304;4.870;2023-03-24T12:42:39;9.40;;;1.33;;
69244;SDS011;56357;52.304;4.870;2023-03-24T12:56:03;11.20;;;1.50;;
69244;SDS011;56357;52.304;4.870;2023-03-24T12:58:41;7.07;;;1.23;;
69244;SDS011;56357;52.304;4.870;2023-03-24T13:03:47;11.10;;;1.45;;
69244;SDS011;56357;52.304;4.870;2023-03-24T13:06:21;12.00;;;1.58;;
69244;SDS011;56357;52.304;4.870;2023-03-24T13:12:20;9.65;;;1.45;;
69244;SDS011;56357;52.304;4.870;2023-03-24T13:15:05;11.85;;;1.35;;
69244;SDS011;56357;52.304;4.870;2023-03-24T13:18:02;9.27;;;1.48;;
69244;SDS011;56357;52.304;4.870;2023-03-24T13:20:39;8.77;;;1.23;;
69244;SDS011;56357;52.304;4.870;2023-03-24T13:31:18;8.40;;;1.17;;
69244;SDS011;56357;52.304;4.870;2023-03-24T13:33:47;13.93;;;1.42;;
69244;SDS011;56357;52.304;4.870;2023-03-24T13:39:00;8.05;;;1.52;;
69244;SDS011;56357;52.304;4.870;2023-03-24T13:41:34;7.45;;;1.33;;
69244;SDS011;56357;52.304;4.870;2023-03-24T13:44:07;5.55;;;1.00;;
69244;SDS011;56357;52.304;4.870;2023-03-24T13:46:41;10.20;;;1.42;;
69244;SDS011;56357;52.304;4.870;2023-03-24T13:49:12;8.63;;;0.90;;
69244;SDS011;56357;52.304;4.870;2023-03-24T13:51:42;7.55;;;1.10;;
69244;SDS011;56357;52.304;4.870;2023-03-24T13:54:20;10.32;;;1.50;;
69244;SDS011;56357;52.304;4.870;2023-03-24T13:59:28;7.22;;;0.88;;
69244;SDS011;56357;52.304;4.870;2023-03-24T14:04:43;10.20;;;1.17;;
69244;SDS011;56357;52.304;4.870;2023-03-24T14:10:00;12.82;;;1.30;;
69244;SDS011;56357;52.304;4.870;2023-03-24T14:12:51;11.07;;;1.42;;
69244;SDS011;56357;52.304;4.870;2023-03-24T14:15:20;13.37;;;1.63;;
69244;SDS011;56357;52.304;4.870;2023-03-24T14:17:54;7.72;;;1.40;;
69244;SDS011;56357;52.304;4.870;2023-03-24T14:20:38;7.68;;;1.20;;
69244;SDS011;56357;52.304;4.870;2023-03-24T14:26:39;10.68;;;1.73;;
69244;SDS011;56357;52.304;4.870;2023-03-24T14:29:25;11.03;;;1.23;;
69244;SDS011;56357;52.304;4.870;2023-03-24T14:32:02;8.70;;;1.27;;
69244;SDS011;56357;52.304;4.870;2023-03-24T14:34:29;7.05;;;0.90;;
69244;SDS011;56357;52.304;4.870;2023-03-24T14:37:00;7.35;;;1.00;;
69244;SDS011;56357;52.304;4.870;2023-03-24T14:39:39;8.85;;;1.00;;
69244;SDS011;56357;52.304;4.870;2023-03-24T14:42:26;13.20;;;1.20;;
69244;SDS011;56357;52.304;4.870;2023-03-24T14:44:59;8.63;;;1.45;;
69244;SDS011;56357;52.304;4.870;2023-03-24T14:47:31;8.32;;;1.20;;
69244;SDS011;56357;52.304;4.870;2023-03-24T14:50:01;9.70;;;0.95;;
69244;SDS011;56357;52.304;4.870;2023-03-24T14:52:49;6.15;;;0.70;;
69244;SDS011;56357;52.304;4.870;2023-03-24T14:55:17;10.00;;;1.07;;
69244;SDS011;56357;52.304;4.870;2023-03-24T14:58:03;12.55;;;1.42;;
69244;SDS011;56357;52.304;4.870;2023-03-24T15:00:43;6.55;;;1.27;;
69244;SDS011;56357;52.304;4.870;2023-03-24T15:03:29;6.13;;;1.13;;
69244;SDS011;56357;52.304;4.870;2023-03-24T15:06:23;8.35;;;1.23;;
69244;SDS011;56357;52.304;4.870;2023-03-24T15:08:49;9.70;;;1.20;;
69244;SDS011;56357;52.304;4.870;2023-03-24T15:11:29;10.85;;;1.17;;
69244;SDS011;56357;52.304;4.870;2023-03-24T15:13:58;8.88;;;1.08;;
69244;SDS011;56357;52.304;4.870;2023-03-24T15:16:27;6.60;;;1.20;;
69244;SDS011;56357;52.304;4.870;2023-03-24T15:21:40;9.00;;;1.40;;
69244;SDS011;56357;52.304;4.870;2023-03-24T15:26:47;10.80;;;1.60;;
69244;SDS011;56357;52.304;4.870;2023-03-24T15:29:15;9.40;;;1.10;;
69244;SDS011;56357;52.304;4.870;2023-03-24T15:31:41;8.20;;;1.40;;
69244;SDS011;56357;52.304;4.870;2023-03-24T15:34:27;8.70;;;1.10;;
69244;SDS011;56357;52.304;4.870;2023-03-24T15:40:04;10.30;;;1.52;;
69244;SDS011;56357;52.304;4.870;2023-03-24T15:42:34;12.32;;;2.05;;
69244;SDS011;56357;52.304;4.870;2023-03-24T15:45:08;10.55;;;1.75;;
69244;SDS011;56357;52.304;4.870;2023-03-24T15:47:42;15.30;;;1.53;;
69244;SDS011;56357;52.304;4.870;2023-03-24T15:50:26;10.60;;;1.27;;
69244;SDS011;56357;52.304;4.870;2023-03-24T15:53:03;11.27;;;1.75;;
69244;SDS011;56357;52.304;4.870;2023-03-24T15:56:00;8.38;;;1.38;;
69244;SDS011;56357;52.304;4.870;2023-03-24T15:58:41;7.45;;;1.20;;
69244;SDS011;56357;52.304;4.870;2023-03-24T16:01:11;8.57;;;1.53;;
69244;SDS011;56357;52.304;4.870;2023-03-24T16:03:41;10.30;;;1.25;;
69244;SDS011;56357;52.304;4.870;2023-03-24T16:06:12;11.75;;;1.52;;
69244;SDS011;56357;52.304;4.870;2023-03-24T16:08:40;11.48;;;1.65;;
69244;SDS011;56357;52.304;4.870;2023-03-24T16:11:10;9.30;;;1.55;;
69244;SDS011;56357;52.304;4.870;2023-03-24T16:13:39;11.63;;;1.67;;
69244;SDS011;56357;52.304;4.870;2023-03-24T16:18:42;14.88;;;2.10;;
69244;SDS011;56357;52.304;4.870;2023-03-24T16:23:42;9.45;;;1.52;;
69244;SDS011;56357;52.304;4.870;2023-03-24T16:26:16;9.53;;;1.07;;
69244;SDS011;56357;52.304;4.870;2023-03-24T16:28:50;6.90;;;1.08;;
69244;SDS011;56357;52.304;4.870;2023-03-24T16:33:59;9.57;;;0.98;;
69244;SDS011;56357;52.304;4.870;2023-03-24T16:36:26;5.95;;;0.73;;
69244;SDS011;56357;52.304;4.870;2023-03-24T16:38:53;11.83;;;1.50;;
69244;SDS011;56357;52.304;4.870;2023-03-24T16:41:21;12.07;;;1.42;;
69244;SDS011;56357;52.304;4.870;2023-03-24T16:43:48;5.95;;;0.73;;
69244;SDS011;56357;52.304;4.870;2023-03-24T16:46:15;9.15;;;1.05;;
69244;SDS011;56357;52.304;4.870;2023-03-24T16:48:45;8.52;;;1.25;;
69244;SDS011;56357;52.304;4.870;2023-03-24T16:51:12;8.43;;;1.13;;
69244;SDS011;56357;52.304;4.870;2023-03-24T16:53:40;8.55;;;0.90;;
69244;SDS011;56357;52.304;4.870;2023-03-24T16:56:11;10.63;;;1.27;;
69244;SDS011;56357;52.304;4.870;2023-03-24T16:58:38;7.88;;;0.88;;
69244;SDS011;56357;52.304;4.870;2023-03-24T17:03:51;6.33;;;0.80;;
69244;SDS011;56357;52.304;4.870;2023-03-24T17:06:22;8.68;;;1.02;;
69244;SDS011;56357;52.304;4.870;2023-03-24T17:08:49;8.60;;;1.05;;
69244;SDS011;56357;52.304;4.870;2023-03-24T17:11:17;11.82;;;1.00;;
69244;SDS011;56357;52.304;4.870;2023-03-24T17:13:48;7.53;;;0.90;;
69244;SDS011;56357;52.304;4.870;2023-03-24T17:16:15;6.13;;;1.00;;
69244;SDS011;56357;52.304;4.870;2023-03-24T17:18:42;8.02;;;0.75;;
69244;SDS011;56357;52.304;4.870;2023-03-24T17:21:10;7.15;;;0.93;;
69244;SDS011;56357;52.304;4.870;2023-03-24T17:23:38;8.27;;;0.80;;
69244;SDS011;56357;52.304;4.870;2023-03-24T17:26:05;7.30;;;0.85;;
69244;SDS011;56357;52.304;4.870;2023-03-24T17:28:31;12.70;;;0.87;;
69244;SDS011;56357;52.304;4.870;2023-03-24T17:30:58;9.35;;;1.30;;
69244;SDS011;56357;52.304;4.870;2023-03-24T17:33:24;9.30;;;0.90;;
69244;SDS011;56357;52.304;4.870;2023-03-24T17:35:51;7.75;;;0.85;;
69244;SDS011;56357;52.304;4.870;2023-03-24T17:38:19;8.30;;;0.90;;
69244;SDS011;56357;52.304;4.870;2023-03-24T17:40:45;7.97;;;1.00;;
69244;SDS011;56357;52.304;4.870;2023-03-24T17:43:12;11.23;;;0.98;;